Eskdale, Utah
Current Conditions -  °F | °C
As of 3:52 AM on Friday 31 Oct 2014 (Local Time) from KMLF Reporting Station
Clear Clear  
Wind Chill: 38°   Ceiling: Unl
Heat Index: 41°   Visibility: 10mi
Dew Point: 22°   Wind: 5mph
Humidity: 47%   Direction: 190°S
Pressure: 30.07"   Gusts: NA
Location:  39.0932°N, 113.543°W
Report Text: KMLF 310952Z AUTO 19004KT 10SM CLR 05/M06 A3007 RMK AO2 SLP143 T00501056 TSNO
Loading
Personal Weather Stations






























Interactive Weather Map
Tropical Storm Tracking
New forecast layout! Learn more

10-Day Weather Forecast

Advertisements
Track Severe Weather on mobile